Time;durP1;ratioP1;P1;durP2;ratioP2;P2;SDS_P1;SDS_P2;PMS_P1;PMS_P2;Temp;Humidity;BMP_temperature;BMP_pressure;BME280_temperature;BME280_humidity;BME280_pressure;Samples;Min_cycle;Max_cycle;Signal;HPM_P1;HPM_P2
2022/09/05 00:01:17;;;;;;;6.63;2.38;;;19.00;95.20;;;;;;4954687;28;20054;-57
2022/09/05 00:03:53;;;;;;;5.10;2.60;;;19.00;95.10;;;;;;4955673;28;20051;-57
2022/09/05 00:06:20;;;;;;;6.57;2.35;;;19.10;95.30;;;;;;4955297;28;20129;-57
2022/09/05 00:08:46;;;;;;;4.63;2.30;;;19.10;95.60;;;;;;4954680;29;20510;-58
2022/09/05 00:11:13;;;;;;;6.35;2.20;;;19.10;95.70;;;;;;4955101;29;20525;-57
2022/09/05 00:14:00;;;;;;;7.18;2.55;;;19.10;95.80;;;;;;4957197;28;20078;-58
2022/09/05 00:16:26;;;;;;;5.65;2.03;;;19.10;95.80;;;;;;4961718;28;20093;-58
2022/09/05 00:18:56;;;;;;;5.47;2.22;;;19.10;95.80;;;;;;4962130;29;20043;-58
2022/09/05 00:21:42;;;;;;;9.48;2.70;;;19.10;95.90;;;;;;4961361;29;20055;-58
2022/09/05 00:24:29;;;;;;;33.83;4.10;;;19.20;95.90;;;;;;4961014;29;20051;-58
2022/09/05 00:27:16;;;;;;;6.20;2.47;;;19.20;96.90;;;;;;4961690;28;20098;-58
2022/09/05 00:29:44;;;;;;;17.05;3.88;;;19.30;97.30;;;;;;4959273;28;20090;-57
2022/09/05 00:32:31;;;;;;;14.65;3.38;;;19.50;99.30;;;;;;4976248;28;20431;-57
2022/09/05 00:34:58;;;;;;;9.90;2.75;;;19.40;99.70;;;;;;4961186;28;20090;-59
2022/09/05 00:37:24;;;;;;;16.35;4.82;;;19.30;99.90;;;;;;4961355;28;20518;-58
2022/09/05 00:39:51;;;;;;;10.90;3.63;;;19.20;99.90;;;;;;4961255;28;20050;-59
2022/09/05 00:42:38;;;;;;;9.13;3.33;;;19.20;99.90;;;;;;4961334;28;20079;-59
2022/09/05 00:45:05;;;;;;;8.60;3.00;;;19.10;99.90;;;;;;4961109;28;20407;-59
2022/09/05 00:47:45;;;;;;;7.85;3.15;;;19.00;99.90;;;;;;4961499;28;20063;-59
2022/09/05 00:50:14;;;;;;;9.95;3.35;;;19.00;99.90;;;;;;4961613;29;20043;-58
2022/09/05 00:52:40;;;;;;;8.02;3.65;;;19.00;99.90;;;;;;4961497;28;20043;-59
2022/09/05 00:55:07;;;;;;;11.70;3.88;;;19.00;99.90;;;;;;4960257;28;20490;-59
2022/09/05 00:57:34;;;;;;;8.65;3.30;;;19.00;99.90;;;;;;4961742;29;20055;-60
2022/09/05 01:00:01;;;;;;;8.02;3.28;;;19.00;99.90;;;;;;4958350;28;20122;-59
2022/09/05 01:02:28;;;;;;;11.05;3.30;;;19.00;99.90;;;;;;4961065;28;20047;-60
2022/09/05 01:04:57;;;;;;;9.63;3.17;;;18.90;99.90;;;;;;4960897;28;20513;-59
2022/09/05 01:07:24;;;;;;;7.43;3.40;;;18.90;99.90;;;;;;4959898;29;20160;-59
2022/09/05 01:09:50;;;;;;;11.02;3.75;;;18.80;99.90;;;;;;4960382;28;20109;-60
2022/09/05 01:12:17;;;;;;;5.80;3.47;;;18.80;99.90;;;;;;4961142;28;20041;-60
2022/09/05 01:14:44;;;;;;;8.35;3.67;;;18.70;99.90;;;;;;4960366;28;20077;-60
2022/09/05 01:17:11;;;;;;;9.02;3.85;;;18.70;99.90;;;;;;4961520;28;20043;-60
2022/09/05 01:19:37;;;;;;;6.47;3.58;;;18.70;99.90;;;;;;4961143;28;20040;-60
2022/09/05 01:22:04;;;;;;;11.23;3.70;;;18.70;99.90;;;;;;4961417;28;20050;-60
2022/09/05 01:24:31;;;;;;;9.52;3.60;;;18.70;99.90;;;;;;4958876;28;20036;-60
2022/09/05 01:26:58;;;;;;;6.07;3.20;;;18.70;99.90;;;;;;4957114;28;20068;-60
2022/09/05 01:29:24;;;;;;;7.28;3.10;;;18.70;99.90;;;;;;4956277;29;20434;-60
2022/09/05 01:31:51;;;;;;;6.50;3.45;;;18.70;99.90;;;;;;4958109;28;20094;-60
2022/09/05 01:34:19;;;;;;;7.45;3.33;;;18.70;99.90;;;;;;4957329;28;20044;-60
2022/09/05 01:36:57;;;;;;;8.00;3.20;;;18.70;99.90;;;;;;4958292;29;20070;-60
2022/09/05 01:39:23;;;;;;;5.80;3.00;;;18.70;99.90;;;;;;4957151;28;20139;-60
2022/09/05 01:42:10;;;;;;;7.63;3.47;;;18.70;99.90;;;;;;4957915;29;20114;-60
2022/09/05 01:44:37;;;;;;;7.38;3.38;;;18.70;99.90;;;;;;4956995;28;20375;-60
2022/09/05 01:47:04;;;;;;;8.55;3.20;;;18.70;99.90;;;;;;4958217;28;20479;-60
2022/09/05 01:49:33;;;;;;;7.80;3.10;;;18.70;99.90;;;;;;4957647;28;20102;-60
2022/09/05 01:52:03;;;;;;;6.78;2.72;;;18.70;99.90;;;;;;4957803;28;20099;-60
2022/09/05 01:54:30;;;;;;;7.78;3.10;;;18.60;99.90;;;;;;4957694;28;20510;-60
2022/09/05 01:56:57;;;;;;;7.10;3.45;;;18.60;99.90;;;;;;4956272;28;20436;-60
2022/09/05 01:59:24;;;;;;;7.28;3.20;;;18.50;99.90;;;;;;4957262;28;20051;-59
2022/09/05 02:01:51;;;;;;;4.63;3.30;;;18.50;99.90;;;;;;4957199;28;20047;-60
2022/09/05 02:04:17;;;;;;;9.15;3.28;;;18.40;99.90;;;;;;4955502;28;20051;-59
2022/09/05 02:06:44;;;;;;;7.68;3.20;;;18.40;99.90;;;;;;4938325;29;20058;-60
2022/09/05 02:09:11;;;;;;;6.38;3.10;;;18.40;99.90;;;;;;4950005;29;20461;-61
2022/09/05 02:11:40;;;;;;;6.60;3.22;;;18.40;99.90;;;;;;4957784;29;20057;-59
2022/09/05 02:14:07;;;;;;;6.05;2.88;;;18.40;99.90;;;;;;4956087;28;20454;-61
2022/09/05 02:16:33;;;;;;;5.90;3.20;;;18.40;99.90;;;;;;4957231;29;20051;-59
2022/09/05 02:19:00;;;;;;;6.55;2.95;;;18.40;99.90;;;;;;4957372;29;20047;-57
2022/09/05 02:21:27;;;;;;;5.35;2.95;;;18.40;99.90;;;;;;4957254;29;20050;-59
2022/09/05 02:23:54;;;;;;;6.32;2.92;;;18.50;99.90;;;;;;4956967;28;20039;-59
2022/09/05 02:26:20;;;;;;;7.05;3.53;;;18.50;99.90;;;;;;4955655;29;20395;-59
2022/09/05 02:28:47;;;;;;;7.30;3.15;;;18.40;99.90;;;;;;4955801;28;20098;-60
2022/09/05 02:31:14;;;;;;;6.63;3.03;;;18.30;99.90;;;;;;4957470;29;20407;-59
2022/09/05 02:33:46;;;;;;;8.02;2.75;;;18.30;99.90;;;;;;4956975;28;20047;-59
2022/09/05 02:36:13;;;;;;;5.55;2.92;;;18.30;99.90;;;;;;4956854;28;20039;-59
2022/09/05 02:38:39;;;;;;;5.97;3.40;;;18.20;99.90;;;;;;4954837;29;20422;-59
2022/09/05 02:41:28;;;;;;;8.65;3.28;;;18.20;99.90;;;;;;4956645;29;20114;-59
2022/09/05 02:44:14;;;;;;;6.50;2.90;;;18.10;99.90;;;;;;4955719;28;20099;-59
2022/09/05 02:47:02;;;;;;;7.63;3.30;;;18.20;99.90;;;;;;4956958;28;20094;-59
2022/09/05 02:49:30;;;;;;;5.40;2.80;;;18.10;99.90;;;;;;4956456;28;20047;-60
2022/09/05 02:52:18;;;;;;;5.43;2.95;;;18.20;99.90;;;;;;4954178;28;20039;-58
2022/09/05 02:55:04;;;;;;;10.85;3.65;;;18.20;99.90;;;;;;4956264;29;20051;-59
2022/09/05 02:57:52;;;;;;;6.28;2.70;;;18.20;99.90;;;;;;4954937;28;20051;-59
2022/09/05 03:00:33;;;;;;;5.05;2.78;;;18.20;99.90;;;;;;4954641;28;20058;-58
2022/09/05 03:03:00;;;;;;;6.97;3.90;;;18.20;99.90;;;;;;4955974;28;20451;-57
2022/09/05 03:05:27;;;;;;;5.63;3.10;;;18.20;99.90;;;;;;4956441;28;20043;-59
2022/09/05 03:07:54;;;;;;;5.43;3.42;;;18.20;99.90;;;;;;4955711;28;20047;-59
2022/09/05 03:10:21;;;;;;;8.93;3.67;;;18.20;99.90;;;;;;4956190;28;20039;-59
2022/09/05 03:13:07;;;;;;;6.55;3.22;;;18.10;99.90;;;;;;4954588;28;20403;-59
2022/09/05 03:15:34;;;;;;;9.18;3.67;;;18.20;99.90;;;;;;4956000;29;20071;-59
2022/09/05 03:18:01;;;;;;;6.18;3.00;;;18.20;99.90;;;;;;4956042;29;20074;-58
2022/09/05 03:20:49;;;;;;;5.22;3.60;;;18.20;99.90;;;;;;4955325;29;20118;-59
2022/09/05 03:23:16;;;;;;;6.13;3.35;;;18.20;99.90;;;;;;4956178;28;20094;-59
2022/09/05 03:25:42;;;;;;;7.47;3.40;;;18.20;99.90;;;;;;4956262;28;20058;-59
2022/09/05 03:28:09;;;;;;;8.30;3.35;;;18.20;99.90;;;;;;4955133;28;20043;-59
2022/09/05 03:30:36;;;;;;;7.45;3.40;;;18.20;99.90;;;;;;4955605;28;20463;-61
2022/09/05 03:33:03;;;;;;;6.68;3.20;;;18.20;99.90;;;;;;4955875;28;20047;-59
2022/09/05 03:35:30;;;;;;;7.43;3.38;;;18.20;99.90;;;;;;4955518;28;20051;-58
2022/09/05 03:37:56;;;;;;;4.88;3.08;;;18.10;99.90;;;;;;4955528;29;20051;-59
2022/09/05 03:40:23;;;;;;;7.15;3.88;;;18.20;99.90;;;;;;4955967;28;20505;-59
2022/09/05 03:42:50;;;;;;;10.25;3.65;;;18.10;99.90;;;;;;4955157;28;20106;-58
2022/09/05 03:45:18;;;;;;;6.35;3.42;;;18.10;99.90;;;;;;4953855;29;20047;-58
2022/09/05 03:48:02;;;;;;;8.75;3.83;;;18.10;99.90;;;;;;4955193;28;20125;-59
2022/09/05 03:50:49;;;;;;;7.13;3.65;;;17.90;99.90;;;;;;4954159;29;20098;-59
2022/09/05 03:53:36;;;;;;;7.20;3.55;;;18.00;99.90;;;;;;4956246;28;20054;-60
2022/09/05 03:56:23;;;;;;;10.02;4.95;;;18.00;99.90;;;;;;4956128;28;20134;-58
2022/09/05 03:59:09;;;;;;;8.57;4.05;;;17.90;99.90;;;;;;4956445;28;20047;-60
2022/09/05 04:01:36;;;;;;;10.65;4.28;;;17.90;99.90;;;;;;4954641;28;20047;-59
2022/09/05 04:04:23;;;;;;;10.90;3.85;;;17.90;99.90;;;;;;4953555;29;20126;-58
2022/09/05 04:07:09;;;;;;;8.63;3.97;;;17.90;99.90;;;;;;4936581;29;20047;-58
2022/09/05 04:09:56;;;;;;;9.43;3.97;;;17.80;99.90;;;;;;4936645;29;20054;-55
2022/09/05 04:12:23;;;;;;;11.40;4.22;;;17.80;99.90;;;;;;4937010;29;20039;-57
2022/09/05 04:14:50;;;;;;;13.07;4.35;;;17.80;99.90;;;;;;4954847;28;20526;-56
2022/09/05 04:17:17;;;;;;;9.95;4.10;;;17.80;99.90;;;;;;4955864;28;20035;-58
2022/09/05 04:19:44;;;;;;;12.23;4.70;;;17.80;99.90;;;;;;4955762;28;20111;-56
2022/09/05 04:22:15;;;;;;;12.10;4.15;;;17.80;99.90;;;;;;4953985;28;20050;-58
2022/09/05 04:24:42;;;;;;;12.30;4.10;;;17.80;99.90;;;;;;4955307;28;20047;-57
2022/09/05 04:27:09;;;;;;;11.05;4.05;;;17.70;99.90;;;;;;4955609;29;20071;-58
2022/09/05 04:29:35;;;;;;;12.27;3.83;;;17.70;99.90;;;;;;4953704;29;20043;-58
2022/09/05 04:32:02;;;;;;;9.85;3.70;;;17.70;99.90;;;;;;4952690;29;20439;-58
2022/09/05 04:34:44;;;;;;;12.18;3.90;;;17.70;99.90;;;;;;4953275;28;20122;-55
2022/09/05 04:37:15;;;;;;;7.82;3.70;;;17.70;99.90;;;;;;4954796;28;20043;-59
2022/09/05 04:39:42;;;;;;;14.07;3.75;;;17.70;99.90;;;;;;4955239;28;20444;-57
2022/09/05 04:42:09;;;;;;;8.55;3.42;;;17.70;99.90;;;;;;4953230;29;20529;-58
2022/09/05 04:44:36;;;;;;;8.55;3.40;;;17.60;99.90;;;;;;4955321;28;20054;-57
2022/09/05 04:47:03;;;;;;;11.82;3.65;;;17.60;99.90;;;;;;4954751;28;20047;-58
2022/09/05 04:49:30;;;;;;;9.30;3.45;;;17.60;99.90;;;;;;4953733;28;20479;-59
2022/09/05 04:51:57;;;;;;;9.68;3.45;;;17.60;99.90;;;;;;4954365;29;20039;-58
2022/09/05 04:54:26;;;;;;;6.03;3.30;;;17.60;99.90;;;;;;4954595;28;20507;-59
2022/09/05 04:56:55;;;;;;;10.57;3.70;;;17.50;99.90;;;;;;4951785;29;20048;-57
2022/09/05 04:59:25;;;;;;;9.55;2.97;;;17.60;99.90;;;;;;4936350;29;20137;-58
2022/09/05 05:02:11;;;;;;;9.27;3.92;;;17.50;99.90;;;;;;4949371;29;22119;-59
2022/09/05 05:04:58;;;;;;;11.25;3.80;;;17.50;99.90;;;;;;4953653;29;20403;-58
2022/09/05 05:07:45;;;;;;;10.95;3.78;;;17.50;99.90;;;;;;4957997;29;20066;-57
2022/09/05 05:10:12;;;;;;;7.15;3.63;;;17.50;99.90;;;;;;4957105;29;20043;-57
2022/09/05 05:12:58;;;;;;;7.65;3.83;;;17.40;99.90;;;;;;4956911;28;20048;-58
2022/09/05 05:15:45;;;;;;;10.13;3.53;;;17.40;99.90;;;;;;4957854;28;20071;-60
2022/09/05 05:18:32;;;;;;;6.35;3.33;;;17.40;99.90;;;;;;4956748;29;20098;-58
2022/09/05 05:21:19;;;;;;;9.15;3.70;;;17.40;99.90;;;;;;4956524;29;20102;-58
2022/09/05 05:23:45;;;;;;;7.93;3.35;;;17.40;99.90;;;;;;4957270;28;20067;-59
2022/09/05 05:26:12;;;;;;;9.50;3.35;;;17.40;99.90;;;;;;4957335;28;20043;-57
2022/09/05 05:28:39;;;;;;;10.45;3.50;;;17.40;99.90;;;;;;4952151;29;20062;-58
2022/09/05 05:31:06;;;;;;;7.60;3.38;;;17.40;99.90;;;;;;4955253;29;20054;-57
2022/09/05 05:33:32;;;;;;;7.50;3.65;;;17.30;99.90;;;;;;4956321;28;20050;-58
2022/09/05 05:35:59;;;;;;;8.90;3.80;;;17.30;99.90;;;;;;4957238;28;20039;-61
2022/09/05 05:38:26;;;;;;;10.90;4.10;;;17.30;99.90;;;;;;4954544;28;20032;-59
2022/09/05 05:40:53;;;;;;;10.38;3.90;;;17.30;99.90;;;;;;4957749;28;20379;-58
2022/09/05 05:43:19;;;;;;;7.47;3.85;;;17.30;99.90;;;;;;4956068;28;20359;-57
2022/09/05 05:45:46;;;;;;;9.75;3.78;;;17.40;99.90;;;;;;4957806;28;20098;-58
2022/09/05 05:48:13;;;;;;;6.65;3.67;;;17.40;99.90;;;;;;4957602;28;20060;-57
2022/09/05 05:50:39;;;;;;;9.32;4.03;;;17.30;99.90;;;;;;4956543;28;20086;-58
2022/09/05 05:53:06;;;;;;;8.70;4.30;;;17.40;99.90;;;;;;4956713;28;20047;-58
2022/09/05 05:55:33;;;;;;;9.68;3.95;;;17.40;99.90;;;;;;4957796;28;20713;-58
2022/09/05 05:58:18;;;;;;;11.00;4.03;;;17.40;99.90;;;;;;4957405;28;20078;-58
2022/09/05 06:00:45;;;;;;;7.45;4.00;;;17.50;99.90;;;;;;4955185;28;20050;-58
2022/09/05 06:03:17;;;;;;;8.82;3.80;;;17.40;99.90;;;;;;4953400;28;20051;-59
2022/09/05 06:05:52;;;;;;;9.57;3.70;;;17.50;99.90;;;;;;4953375;29;20565;-58
2022/09/05 06:08:20;;;;;;;14.27;3.90;;;17.50;99.90;;;;;;4957268;28;20043;-58
2022/09/05 06:11:07;;;;;;;8.63;3.33;;;17.60;99.90;;;;;;4956282;28;20065;-57
2022/09/05 06:13:54;;;;;;;12.48;4.20;;;17.60;99.90;;;;;;4957177;28;20102;-58
2022/09/05 06:16:40;;;;;;;14.77;3.95;;;17.60;99.90;;;;;;4956641;28;20035;-58
2022/09/05 06:19:09;;;;;;;9.45;3.70;;;17.60;99.90;;;;;;4956205;29;20050;-56
2022/09/05 06:21:36;;;;;;;8.95;3.90;;;17.60;99.90;;;;;;4955773;28;20070;-58
2022/09/05 06:24:23;;;;;;;10.93;3.70;;;17.60;99.90;;;;;;4953306;28;20451;-58
2022/09/05 06:26:49;;;;;;;9.15;3.50;;;17.70;99.90;;;;;;4958157;28;20058;-57
2022/09/05 06:29:16;;;;;;;8.43;3.72;;;17.70;99.90;;;;;;4955803;28;20044;-58
2022/09/05 06:31:43;;;;;;;9.05;3.60;;;17.70;99.90;;;;;;4957879;28;20036;-58
2022/09/05 06:34:10;;;;;;;10.10;4.00;;;17.80;99.90;;;;;;4949629;28;20035;-60
2022/09/05 06:36:56;;;;;;;9.30;3.85;;;17.80;99.90;;;;;;4956343;29;20483;-58
2022/09/05 06:39:23;;;;;;;10.88;3.33;;;17.80;99.90;;;;;;4954358;28;20043;-57
2022/09/05 06:41:50;;;;;;;11.88;3.28;;;17.90;99.90;;;;;;4953968;29;20364;-57
2022/09/05 06:44:22;;;;;;;10.15;3.13;;;17.90;99.90;;;;;;4955591;29;20431;-58
2022/09/05 06:46:51;;;;;;;14.35;6.13;;;17.90;99.90;;;;;;4949427;28;20061;-57
2022/09/05 06:49:38;;;;;;;14.27;5.32;;;17.90;99.90;;;;;;4952222;28;20047;-57
2022/09/05 06:52:11;;;;;;;15.00;3.80;;;18.00;99.90;;;;;;4947938;29;20042;-58
2022/09/05 06:54:55;;;;;;;11.07;3.45;;;18.00;99.90;;;;;;4947831;29;20031;-58
2022/09/05 06:57:25;;;;;;;9.43;3.05;;;18.10;99.90;;;;;;4954460;29;20126;-58
2022/09/05 06:59:52;;;;;;;9.60;3.08;;;18.10;99.90;;;;;;4955451;28;20047;-58
2022/09/05 07:02:19;;;;;;;11.52;3.58;;;18.10;99.90;;;;;;4956474;28;20102;-56
2022/09/05 07:05:06;;;;;;;12.40;3.35;;;18.10;99.90;;;;;;4955780;29;20526;-58
2022/09/05 07:07:53;;;;;;;8.07;3.15;;;18.20;99.90;;;;;;4956615;28;20490;-59
2022/09/05 07:10:20;;;;;;;10.20;3.33;;;18.20;99.90;;;;;;4956366;28;20070;-58
2022/09/05 07:13:04;;;;;;;12.15;3.70;;;18.30;99.90;;;;;;4954329;28;20053;-57
2022/09/05 07:15:30;;;;;;;12.43;3.75;;;18.30;99.90;;;;;;4955165;28;20388;-59
2022/09/05 07:17:57;;;;;;;11.93;3.55;;;18.30;99.90;;;;;;4955126;28;20041;-57
2022/09/05 07:20:39;;;;;;;12.93;3.85;;;18.30;99.90;;;;;;4954484;29;20058;-57
2022/09/05 07:23:26;;;;;;;13.15;4.07;;;18.40;99.90;;;;;;4953897;28;20047;-57
2022/09/05 07:26:13;;;;;;;13.10;3.67;;;18.40;99.90;;;;;;4968508;28;20063;-58
2022/09/05 07:28:59;;;;;;;13.65;3.92;;;18.50;99.90;;;;;;4955920;29;20039;-58
2022/09/05 07:31:27;;;;;;;12.05;3.53;;;18.50;99.90;;;;;;4955208;29;20051;-58
2022/09/05 07:34:03;;;;;;;12.30;3.88;;;18.50;99.90;;;;;;4955728;28;20050;-58
2022/09/05 07:36:46;;;;;;;10.18;3.78;;;18.50;99.90;;;;;;4955989;28;20050;-57
2022/09/05 07:39:13;;;;;;;12.55;5.32;;;18.50;99.90;;;;;;4951470;28;20163;-58
2022/09/05 07:41:54;;;;;;;12.27;3.70;;;18.60;99.90;;;;;;4944479;28;20051;-58
2022/09/05 07:44:22;;;;;;;10.10;3.80;;;18.60;99.90;;;;;;4953666;29;20052;-59
2022/09/05 07:46:48;;;;;;;11.18;3.60;;;18.60;99.90;;;;;;4950802;28;20058;-58
2022/09/05 07:49:15;;;;;;;9.82;4.05;;;18.70;99.90;;;;;;4954270;28;20478;-59
2022/09/05 07:51:42;;;;;;;16.52;4.30;;;18.70;99.90;;;;;;4950882;29;20047;-59
2022/09/05 07:54:29;;;;;;;9.65;4.53;;;18.80;99.90;;;;;;4953257;28;20073;-58
2022/09/05 07:57:16;;;;;;;19.13;5.15;;;18.80;99.90;;;;;;4950903;29;20051;-58
2022/09/05 07:59:57;;;;;;;14.18;3.78;;;18.90;99.90;;;;;;4953361;28;20047;-59
2022/09/05 08:02:24;;;;;;;12.75;4.15;;;18.90;99.90;;;;;;4954620;28;20146;-57
2022/09/05 08:04:52;;;;;;;14.85;4.18;;;18.90;99.90;;;;;;4935511;29;20059;-59
2022/09/05 08:07:18;;;;;;;13.38;4.25;;;19.00;99.90;;;;;;4953456;29;20135;-59
2022/09/05 08:10:05;;;;;;;12.10;3.90;;;19.00;99.90;;;;;;4952740;28;20043;-59
2022/09/05 08:12:35;;;;;;;10.23;3.50;;;19.10;99.90;;;;;;4954862;29;20050;-56
2022/09/05 08:15:22;;;;;;;15.10;4.22;;;19.20;99.90;;;;;;4949670;28;20047;-58
2022/09/05 08:17:49;;;;;;;8.27;3.53;;;19.20;99.90;;;;;;4952937;29;20094;-58
2022/09/05 08:20:16;;;;;;;9.32;3.47;;;19.20;99.90;;;;;;4953328;28;20074;-57
2022/09/05 08:22:43;;;;;;;13.63;3.70;;;19.30;99.90;;;;;;4953002;28;20051;-58
2022/09/05 08:25:18;;;;;;;10.25;3.72;;;19.40;99.90;;;;;;4950189;28;20184;-57
2022/09/05 08:27:45;;;;;;;7.10;2.95;;;19.40;99.90;;;;;;4948516;29;20059;-58
2022/09/05 08:30:12;;;;;;;12.52;3.22;;;19.50;99.90;;;;;;4946178;28;20039;-57
2022/09/05 08:32:53;;;;;;;13.20;3.75;;;19.60;99.90;;;;;;4949505;28;20042;-60
2022/09/05 08:35:36;;;;;;;9.73;3.40;;;19.70;99.90;;;;;;4951072;28;20489;-61
2022/09/05 08:38:03;;;;;;;11.90;4.18;;;19.80;99.90;;;;;;4958183;28;20459;-60
2022/09/05 08:40:30;;;;;;;8.98;3.47;;;19.90;99.90;;;;;;4957224;28;20043;-59
2022/09/05 08:42:56;;;;;;;8.23;2.83;;;19.90;99.90;;;;;;4958366;29;20047;-58
2022/09/05 08:45:43;;;;;;;11.27;2.67;;;20.00;99.90;;;;;;4958461;29;20043;-61
2022/09/05 08:48:30;;;;;;;12.13;2.60;;;20.00;99.90;;;;;;4958226;29;20051;-57
2022/09/05 08:50:56;;;;;;;15.27;3.50;;;20.10;99.90;;;;;;4957966;29;20394;-58
2022/09/05 08:53:23;;;;;;;8.77;2.30;;;20.10;99.90;;;;;;4957985;28;20043;-58
2022/09/05 08:56:10;;;;;;;12.13;2.83;;;20.20;99.90;;;;;;4957928;29;20059;-59
2022/09/05 08:58:42;;;;;;;8.45;2.30;;;20.20;99.90;;;;;;4958209;28;20043;-60
2022/09/05 09:01:09;;;;;;;9.27;2.35;;;20.30;99.90;;;;;;4958059;29;20054;-60
2022/09/05 09:03:37;;;;;;;9.75;2.40;;;20.30;99.90;;;;;;4958031;29;20114;-60
2022/09/05 09:06:04;;;;;;;10.20;2.78;;;20.40;99.90;;;;;;4956368;29;20083;-60
2022/09/05 09:08:41;;;;;;;9.40;2.35;;;20.50;99.90;;;;;;4957984;28;20528;-58
2022/09/05 09:11:08;;;;;;;10.23;2.65;;;20.50;99.90;;;;;;4957806;29;20050;-59
2022/09/05 09:13:35;;;;;;;11.77;2.40;;;20.60;99.90;;;;;;4957558;28;20047;-58
2022/09/05 09:16:05;;;;;;;8.07;2.55;;;20.70;99.90;;;;;;4957776;28;20511;-59
2022/09/05 09:18:32;;;;;;;7.85;2.15;;;20.80;99.90;;;;;;4957752;28;20074;-58
2022/09/05 09:21:01;;;;;;;8.20;2.20;;;20.90;99.90;;;;;;4956657;28;20066;-58
2022/09/05 09:23:28;;;;;;;10.75;2.65;;;20.90;99.90;;;;;;4954273;28;20047;-59
2022/09/05 09:26:06;;;;;;;6.05;2.28;;;21.00;99.90;;;;;;4956577;28;20047;-58
2022/09/05 09:28:32;;;;;;;8.30;2.03;;;21.10;99.90;;;;;;4953043;29;20051;-59
2022/09/05 09:31:16;;;;;;;10.55;2.42;;;21.20;99.90;;;;;;4951775;29;20044;-58
2022/09/05 09:33:43;;;;;;;7.05;2.10;;;21.20;99.90;;;;;;4957242;28;20055;-59
2022/09/05 09:36:10;;;;;;;7.45;2.50;;;21.30;99.90;;;;;;4957336;28;20043;-59
2022/09/05 09:38:36;;;;;;;6.85;1.90;;;21.30;99.90;;;;;;4957108;28;20493;-58
2022/09/05 09:41:03;;;;;;;7.50;2.22;;;21.30;99.90;;;;;;4956571;28;20106;-59
2022/09/05 09:43:30;;;;;;;8.52;2.50;;;21.40;99.90;;;;;;4957133;28;20051;-59
2022/09/05 09:45:56;;;;;;;6.75;2.03;;;21.40;99.90;;;;;;4956672;28;20054;-60
2022/09/05 09:48:23;;;;;;;8.63;2.20;;;21.40;99.90;;;;;;4950788;29;20517;-58
2022/09/05 09:50:50;;;;;;;7.53;2.40;;;21.50;99.90;;;;;;4950679;29;20047;-56
2022/09/05 09:53:26;;;;;;;6.35;2.35;;;21.50;99.90;;;;;;4951779;28;20036;-58
2022/09/05 09:55:53;;;;;;;7.25;2.42;;;21.50;99.90;;;;;;4954257;28;20058;-57
2022/09/05 09:58:19;;;;;;;12.90;2.60;;;21.50;99.90;;;;;;4954747;29;20106;-58
2022/09/05 10:00:49;;;;;;;9.90;2.60;;;21.60;99.90;;;;;;4956639;29;20055;-59
2022/09/05 10:03:18;;;;;;;7.18;2.92;;;21.60;99.90;;;;;;4956606;29;20043;-57
2022/09/05 10:06:04;;;;;;;10.57;2.20;;;21.70;99.90;;;;;;4956425;29;20378;-58
2022/09/05 10:08:51;;;;;;;9.93;2.38;;;21.70;99.90;;;;;;4956698;28;20513;-59
2022/09/05 10:11:38;;;;;;;8.25;2.42;;;21.80;99.90;;;;;;4954515;28;20058;-58
2022/09/05 10:14:19;;;;;;;9.10;2.65;;;21.80;99.90;;;;;;4955467;28;20097;-59
2022/09/05 10:17:06;;;;;;;9.60;3.13;;;21.80;99.90;;;;;;4955554;28;20047;-59
2022/09/05 10:19:33;;;;;;;9.43;3.03;;;21.90;99.90;;;;;;4955013;28;20043;-59
2022/09/05 10:22:20;;;;;;;10.82;3.03;;;21.90;99.90;;;;;;4937584;29;20063;-58
2022/09/05 10:25:03;;;;;;;6.90;2.70;;;21.90;99.90;;;;;;4954831;28;20040;-59
2022/09/05 10:27:45;;;;;;;5.50;2.50;;;21.80;99.90;;;;;;4955776;28;20047;-59
2022/09/05 10:30:12;;;;;;;8.82;2.80;;;21.90;99.90;;;;;;4956391;28;20533;-59
2022/09/05 10:32:39;;;;;;;8.82;2.35;;;21.90;99.90;;;;;;4956454;28;20047;-59
2022/09/05 10:35:26;;;;;;;8.82;2.50;;;21.90;99.90;;;;;;4956707;28;20047;-60
2022/09/05 10:37:54;;;;;;;6.80;2.38;;;21.90;99.90;;;;;;4956414;28;20039;-58
2022/09/05 10:40:21;;;;;;;5.82;2.42;;;21.90;99.90;;;;;;4955544;28;20066;-60
2022/09/05 10:42:48;;;;;;;8.65;2.58;;;21.80;99.90;;;;;;4956011;28;20051;-59
2022/09/05 10:45:27;;;;;;;6.43;2.53;;;21.90;99.90;;;;;;4956066;29;20055;-60
2022/09/05 10:48:04;;;;;;;5.93;2.40;;;21.80;99.90;;;;;;4956030;29;20043;-60
2022/09/05 10:50:40;;;;;;;7.88;2.17;;;21.80;99.90;;;;;;4950525;29;20043;-60
2022/09/05 10:53:08;;;;;;;10.88;2.78;;;21.80;99.90;;;;;;4956011;29;20040;-56
2022/09/05 10:55:35;;;;;;;6.47;2.13;;;21.80;99.90;;;;;;4954497;29;20059;-60
2022/09/05 10:58:01;;;;;;;8.60;2.60;;;21.80;99.90;;;;;;4954847;28;20058;-60
2022/09/05 11:00:28;;;;;;;8.40;2.65;;;21.80;99.90;;;;;;4955584;28;20047;-60
2022/09/05 11:03:17;;;;;;;6.47;2.17;;;21.80;99.90;;;;;;4952034;28;20047;-59
2022/09/05 11:05:58;;;;;;;7.43;2.22;;;21.90;99.90;;;;;;4955413;29;20066;-61
2022/09/05 11:08:34;;;;;;;7.57;2.47;;;21.90;99.90;;;;;;4955825;28;20051;-63
2022/09/05 11:11:02;;;;;;;7.20;2.42;;;22.00;99.90;;;;;;4944938;29;20050;-61
2022/09/05 11:13:28;;;;;;;8.50;2.70;;;22.10;99.90;;;;;;4949333;28;20047;-61
2022/09/05 11:15:56;;;;;;;10.45;2.65;;;22.20;99.90;;;;;;4954374;29;20047;-59
2022/09/05 11:18:32;;;;;;;7.65;2.45;;;22.30;99.90;;;;;;4955564;28;20063;-60
2022/09/05 11:21:19;;;;;;;8.30;2.38;;;22.40;99.90;;;;;;4955616;29;20070;-59
2022/09/05 11:23:45;;;;;;;12.98;2.45;;;22.50;99.90;;;;;;4954108;29;20502;-60
2022/09/05 11:26:23;;;;;;;8.95;2.30;;;22.70;99.90;;;;;;4955482;29;20047;-60
2022/09/05 11:28:50;;;;;;;9.00;2.50;;;22.80;99.90;;;;;;4954655;28;20039;-60
2022/09/05 11:31:26;;;;;;;8.20;2.30;;;22.90;99.90;;;;;;4955077;28;20040;-60
2022/09/05 11:34:13;;;;;;;8.02;2.70;;;23.00;99.90;;;;;;4955157;29;20414;-60
2022/09/05 11:37:00;;;;;;;7.00;2.53;;;23.10;99.90;;;;;;4955265;28;20052;-60
2022/09/05 11:39:47;;;;;;;6.78;2.33;;;23.20;99.90;;;;;;4955232;29;20118;-59
2022/09/05 11:42:34;;;;;;;10.98;2.60;;;23.20;99.90;;;;;;4954724;29;20079;-60
2022/09/05 11:45:00;;;;;;;7.85;2.75;;;23.20;99.90;;;;;;4955792;28;20483;-60
2022/09/05 11:47:27;;;;;;;9.13;2.85;;;23.30;99.90;;;;;;4955436;28;20392;-60
2022/09/05 11:50:05;;;;;;;7.93;2.53;;;23.30;99.90;;;;;;4954755;28;20066;-60
2022/09/05 11:52:35;;;;;;;7.82;2.33;;;23.40;99.90;;;;;;4954999;29;20035;-56
2022/09/05 11:55:01;;;;;;;5.45;2.40;;;23.40;99.70;;;;;;4954869;28;20042;-58
2022/09/05 11:57:30;;;;;;;7.85;3.38;;;23.30;99.30;;;;;;4954079;29;20051;-58
2022/09/05 12:00:00;;;;;;;9.13;2.78;;;23.30;99.70;;;;;;4954740;29;20043;-60
2022/09/05 12:02:48;;;;;;;5.78;2.72;;;23.30;99.60;;;;;;4954864;28;20035;-59
2022/09/05 12:05:17;;;;;;;6.28;2.70;;;23.30;99.70;;;;;;4954725;29;20087;-59
2022/09/05 12:08:04;;;;;;;8.80;3.20;;;23.30;99.30;;;;;;4954618;29;20495;-58
2022/09/05 12:10:33;;;;;;;7.88;3.17;;;23.30;99.60;;;;;;4953853;28;20091;-58
2022/09/05 12:13:16;;;;;;;7.07;3.15;;;23.20;99.70;;;;;;4953662;28;20517;-57
2022/09/05 12:15:47;;;;;;;10.68;3.25;;;23.30;99.80;;;;;;4949078;29;20039;-58
2022/09/05 12:18:33;;;;;;;9.02;3.10;;;23.20;99.50;;;;;;4954777;29;20065;-57
2022/09/05 12:21:00;;;;;;;5.57;2.75;;;23.10;99.30;;;;;;4954501;28;20051;-56
2022/09/05 12:23:27;;;;;;;7.72;2.70;;;23.00;99.40;;;;;;4954060;28;20536;-57
2022/09/05 12:26:13;;;;;;;9.68;3.03;;;22.90;99.70;;;;;;4954827;29;20043;-60
2022/09/05 12:29:02;;;;;;;9.35;2.72;;;22.90;99.90;;;;;;4953876;29;20067;-58
2022/09/05 12:31:49;;;;;;;8.13;2.50;;;22.90;99.90;;;;;;4954432;29;20463;-58
2022/09/05 12:34:35;;;;;;;8.52;3.05;;;23.00;99.90;;;;;;4953878;28;20035;-58
2022/09/05 12:37:22;;;;;;;7.57;2.53;;;23.00;99.90;;;;;;4950849;29;20044;-58
2022/09/05 12:40:09;;;;;;;4.97;2.53;;;23.00;99.90;;;;;;4953559;29;20102;-58
2022/09/05 12:42:56;;;;;;;8.68;2.60;;;23.00;99.90;;;;;;4954354;28;20487;-58
2022/09/05 12:45:43;;;;;;;6.90;2.63;;;23.00;99.90;;;;;;4954566;29;20043;-58
2022/09/05 12:48:10;;;;;;;7.57;2.58;;;23.10;99.90;;;;;;4954405;29;20082;-58
2022/09/05 12:50:37;;;;;;;7.63;3.25;;;23.20;99.90;;;;;;4953460;28;20051;-58
2022/09/05 12:53:05;;;;;;;9.85;3.17;;;23.40;99.90;;;;;;4954477;28;20482;-59
2022/09/05 12:55:32;;;;;;;7.80;2.40;;;23.50;99.90;;;;;;4953436;29;20110;-58
2022/09/05 12:57:59;;;;;;;7.93;2.35;;;23.60;99.30;;;;;;4954451;28;20168;-58
2022/09/05 13:00:46;;;;;;;5.85;2.50;;;23.70;99.00;;;;;;4953641;29;20078;-59
2022/09/05 13:03:33;;;;;;;6.90;2.67;;;23.70;99.00;;;;;;4951432;28;20072;-57
2022/09/05 13:06:00;;;;;;;7.15;2.40;;;23.70;98.90;;;;;;4953155;29;20047;-58
2022/09/05 13:08:27;;;;;;;7.95;2.25;;;23.80;99.00;;;;;;4954464;28;20130;-58
2022/09/05 13:10:55;;;;;;;9.65;2.20;;;23.90;98.80;;;;;;4954043;29;20180;-58
2022/09/05 13:13:43;;;;;;;4.90;2.08;;;23.90;98.60;;;;;;4953491;28;20043;-55